sensor_id;sensor_type;location;lat;lon;timestamp;pressure;altitude;pressure_sealevel;temperature;humidity
14204;BME280;7185;51.854;6.622;2022-12-10T00:01:28;100558.84;;;-0.30;100.00
14204;BME280;7185;51.854;6.622;2022-12-10T00:04:02;100553.13;;;-0.18;100.00
14204;BME280;7185;51.854;6.622;2022-12-10T00:06:35;100557.13;;;-0.29;100.00
14204;BME280;7185;51.854;6.622;2022-12-10T00:09:10;100556.03;;;-0.38;100.00
14204;BME280;7185;51.854;6.622;2022-12-10T00:12:04;100557.88;;;-0.34;100.00
14204;BME280;7185;51.854;6.622;2022-12-10T00:15:34;100559.84;;;-0.23;100.00
14204;BME280;7185;51.854;6.622;2022-12-10T00:19:11;100555.50;;;-0.24;100.00
14204;BME280;7185;51.854;6.622;2022-12-10T00:36:08;100578.69;;;-0.24;100.00
14204;BME280;7185;51.854;6.622;2022-12-10T00:42:36;100574.44;;;-0.24;100.00
14204;BME280;7185;51.854;6.622;2022-12-10T00:45:45;100581.34;;;-0.23;100.00
14204;BME280;7185;51.854;6.622;2022-12-10T00:48:25;100571.03;;;-0.23;100.00
14204;BME280;7185;51.854;6.622;2022-12-10T00:51:53;100571.44;;;-0.41;100.00
14204;BME280;7185;51.854;6.622;2022-12-10T00:54:54;100572.06;;;-0.50;100.00
14204;BME280;7185;51.854;6.622;2022-12-10T00:57:35;100576.97;;;-0.59;100.00
14204;BME280;7185;51.854;6.622;2022-12-10T01:00:15;100576.06;;;-0.59;100.00
14204;BME280;7185;51.854;6.622;2022-12-10T01:03:01;100585.53;;;-0.60;100.00
14204;BME280;7185;51.854;6.622;2022-12-10T01:05:42;100575.84;;;-0.69;100.00
14204;BME280;7185;51.854;6.622;2022-12-10T01:17:26;100575.69;;;-0.75;100.00
14204;BME280;7185;51.854;6.622;2022-12-10T01:20:11;100576.84;;;-0.63;100.00
14204;BME280;7185;51.854;6.622;2022-12-10T01:22:47;100578.44;;;-0.69;100.00
14204;BME280;7185;51.854;6.622;2022-12-10T01:25:33;100575.59;;;-0.78;100.00
14204;BME280;7185;51.854;6.622;2022-12-10T01:34:49;100581.06;;;-0.66;100.00
14204;BME280;7185;51.854;6.622;2022-12-10T01:37:28;100586.00;;;-0.75;100.00
14204;BME280;7185;51.854;6.622;2022-12-10T01:40:12;100593.00;;;-0.69;100.00
14204;BME280;7185;51.854;6.622;2022-12-10T01:42:51;100590.56;;;-0.63;100.00
14204;BME280;7185;51.854;6.622;2022-12-10T01:45:24;100596.63;;;-0.62;100.00
14204;BME280;7185;51.854;6.622;2022-12-10T01:47:57;100599.84;;;-0.70;100.00
14204;BME280;7185;51.854;6.622;2022-12-10T01:50:36;100602.91;;;-0.83;100.00
14204;BME280;7185;51.854;6.622;2022-12-10T01:53:14;100601.81;;;-0.91;100.00
14204;BME280;7185;51.854;6.622;2022-12-10T01:55:54;100606.88;;;-0.94;100.00
14204;BME280;7185;51.854;6.622;2022-12-10T01:58:47;100604.25;;;-0.96;100.00
14204;BME280;7185;51.854;6.622;2022-12-10T02:01:32;100605.97;;;-0.97;100.00
14204;BME280;7185;51.854;6.622;2022-12-10T02:04:29;100597.44;;;-0.95;100.00
14204;BME280;7185;51.854;6.622;2022-12-10T02:07:09;100601.16;;;-0.84;100.00
14204;BME280;7185;51.854;6.622;2022-12-10T02:09:55;100610.53;;;-0.86;100.00
14204;BME280;7185;51.854;6.622;2022-12-10T02:12:42;100601.06;;;-0.87;100.00
14204;BME280;7185;51.854;6.622;2022-12-10T02:15:27;100606.16;;;-0.90;100.00
14204;BME280;7185;51.854;6.622;2022-12-10T02:18:08;100606.22;;;-0.87;100.00
14204;BME280;7185;51.854;6.622;2022-12-10T02:20:57;100610.22;;;-0.97;100.00
14204;BME280;7185;51.854;6.622;2022-12-10T02:23:34;100620.59;;;-0.95;100.00
14204;BME280;7185;51.854;6.622;2022-12-10T02:26:22;100608.63;;;-0.93;100.00
14204;BME280;7185;51.854;6.622;2022-12-10T02:29:05;100608.97;;;-0.81;100.00
14204;BME280;7185;51.854;6.622;2022-12-10T02:31:52;100610.00;;;-0.76;100.00
14204;BME280;7185;51.854;6.622;2022-12-10T02:34:31;100608.06;;;-0.83;100.00
14204;BME280;7185;51.854;6.622;2022-12-10T02:37:19;100603.44;;;-0.63;100.00
14204;BME280;7185;51.854;6.622;2022-12-10T02:40:20;100603.09;;;-0.77;100.00
14204;BME280;7185;51.854;6.622;2022-12-10T02:43:10;100605.56;;;-0.80;100.00
14204;BME280;7185;51.854;6.622;2022-12-10T02:45:45;100601.06;;;-0.87;100.00
14204;BME280;7185;51.854;6.622;2022-12-10T02:48:23;100598.97;;;-1.01;100.00
14204;BME280;7185;51.854;6.622;2022-12-10T02:50:56;100598.13;;;-1.01;100.00
14204;BME280;7185;51.854;6.622;2022-12-10T02:53:40;100604.13;;;-1.01;100.00
14204;BME280;7185;51.854;6.622;2022-12-10T02:56:24;100610.16;;;-1.00;100.00
14204;BME280;7185;51.854;6.622;2022-12-10T02:59:17;100602.75;;;-0.89;100.00
14204;BME280;7185;51.854;6.622;2022-12-10T03:02:09;100610.38;;;-0.92;100.00
14204;BME280;7185;51.854;6.622;2022-12-10T03:04:57;100594.00;;;-0.94;100.00
14204;BME280;7185;51.854;6.622;2022-12-10T03:07:38;100597.84;;;-1.10;100.00
14204;BME280;7185;51.854;6.622;2022-12-10T03:10:26;100599.22;;;-1.22;100.00
14204;BME280;7185;51.854;6.622;2022-12-10T03:13:18;100595.59;;;-1.29;100.00
14204;BME280;7185;51.854;6.622;2022-12-10T03:15:55;100601.38;;;-1.36;100.00
14204;BME280;7185;51.854;6.622;2022-12-10T03:18:31;100594.16;;;-1.48;100.00
14204;BME280;7185;51.854;6.622;2022-12-10T03:21:11;100594.03;;;-1.52;100.00
14204;BME280;7185;51.854;6.622;2022-12-10T03:23:55;100593.34;;;-1.47;100.00
14204;BME280;7185;51.854;6.622;2022-12-10T03:26:28;100593.06;;;-1.56;100.00
14204;BME280;7185;51.854;6.622;2022-12-10T03:29:05;100597.44;;;-1.53;100.00
14204;BME280;7185;51.854;6.622;2022-12-10T03:31:56;100585.44;;;-1.53;100.00
14204;BME280;7185;51.854;6.622;2022-12-10T03:34:30;100582.97;;;-1.50;100.00
14204;BME280;7185;51.854;6.622;2022-12-10T03:37:03;100583.53;;;-1.58;100.00
14204;BME280;7185;51.854;6.622;2022-12-10T03:39:40;100585.41;;;-1.54;100.00
14204;BME280;7185;51.854;6.622;2022-12-10T03:42:15;100585.41;;;-1.54;100.00
14204;BME280;7185;51.854;6.622;2022-12-10T03:44:49;100579.31;;;-1.56;100.00
14204;BME280;7185;51.854;6.622;2022-12-10T03:47:24;100591.19;;;-1.62;100.00
14204;BME280;7185;51.854;6.622;2022-12-10T03:50:00;100593.75;;;-1.62;100.00
14204;BME280;7185;51.854;6.622;2022-12-10T03:52:37;100605.59;;;-1.67;100.00
14204;BME280;7185;51.854;6.622;2022-12-10T03:55:12;100612.75;;;-1.56;100.00
14204;BME280;7185;51.854;6.622;2022-12-10T03:57:44;100607.09;;;-1.46;100.00
14204;BME280;7185;51.854;6.622;2022-12-10T04:00:16;100603.72;;;-1.43;100.00
14204;BME280;7185;51.854;6.622;2022-12-10T04:02:48;100609.50;;;-1.23;100.00
14204;BME280;7185;51.854;6.622;2022-12-10T04:05:21;100605.66;;;-1.36;100.00
14204;BME280;7185;51.854;6.622;2022-12-10T04:07:53;100601.19;;;-1.42;100.00
14204;BME280;7185;51.854;6.622;2022-12-10T04:10:25;100609.91;;;-1.37;100.00
14204;BME280;7185;51.854;6.622;2022-12-10T04:12:57;100611.41;;;-1.45;100.00
14204;BME280;7185;51.854;6.622;2022-12-10T04:15:47;100617.25;;;-1.49;100.00
14204;BME280;7185;51.854;6.622;2022-12-10T04:18:36;100612.94;;;-1.50;100.00
14204;BME280;7185;51.854;6.622;2022-12-10T04:21:09;100619.25;;;-1.40;100.00
14204;BME280;7185;51.854;6.622;2022-12-10T04:24:09;100614.50;;;-1.55;100.00
14204;BME280;7185;51.854;6.622;2022-12-10T04:27:01;100616.34;;;-1.51;100.00
14204;BME280;7185;51.854;6.622;2022-12-10T04:29:35;100621.91;;;-1.37;100.00
14204;BME280;7185;51.854;6.622;2022-12-10T04:32:17;100621.63;;;-1.47;100.00
14204;BME280;7185;51.854;6.622;2022-12-10T04:34:49;100623.19;;;-1.52;100.00
14204;BME280;7185;51.854;6.622;2022-12-10T04:37:26;100624.81;;;-1.54;100.00
14204;BME280;7185;51.854;6.622;2022-12-10T04:40:03;100620.91;;;-1.70;100.00
14204;BME280;7185;51.854;6.622;2022-12-10T04:42:36;100627.69;;;-1.72;100.00
14204;BME280;7185;51.854;6.622;2022-12-10T04:45:11;100627.84;;;-1.67;100.00
14204;BME280;7185;51.854;6.622;2022-12-10T04:47:42;100615.69;;;-1.73;100.00
14204;BME280;7185;51.854;6.622;2022-12-10T04:50:14;100621.66;;;-1.74;100.00
14204;BME280;7185;51.854;6.622;2022-12-10T04:52:47;100622.47;;;-1.75;100.00
14204;BME280;7185;51.854;6.622;2022-12-10T04:55:19;100622.47;;;-1.75;100.00
14204;BME280;7185;51.854;6.622;2022-12-10T04:57:51;100618.28;;;-1.71;100.00
14204;BME280;7185;51.854;6.622;2022-12-10T05:00:22;100621.50;;;-1.79;100.00
14204;BME280;7185;51.854;6.622;2022-12-10T05:02:55;100628.78;;;-1.65;100.00
14204;BME280;7185;51.854;6.622;2022-12-10T05:05:26;100631.94;;;-1.74;100.00
14204;BME280;7185;51.854;6.622;2022-12-10T05:07:59;100626.72;;;-1.76;100.00
14204;BME280;7185;51.854;6.622;2022-12-10T05:10:34;100625.97;;;-1.73;100.00
14204;BME280;7185;51.854;6.622;2022-12-10T05:13:05;100637.69;;;-1.81;100.00
14204;BME280;7185;51.854;6.622;2022-12-10T05:15:37;100626.53;;;-1.82;100.00
14204;BME280;7185;51.854;6.622;2022-12-10T05:18:09;100626.25;;;-1.64;100.00
14204;BME280;7185;51.854;6.622;2022-12-10T05:20:41;100626.16;;;-1.67;100.00
14204;BME280;7185;51.854;6.622;2022-12-10T05:23:14;100624.50;;;-1.65;100.00
14204;BME280;7185;51.854;6.622;2022-12-10T05:26:02;100620.81;;;-1.73;100.00
14204;BME280;7185;51.854;6.622;2022-12-10T05:28:37;100623.25;;;-1.78;100.00
14204;BME280;7185;51.854;6.622;2022-12-10T05:31:13;100627.50;;;-1.78;100.00
14204;BME280;7185;51.854;6.622;2022-12-10T05:33:47;100630.81;;;-1.82;100.00
14204;BME280;7185;51.854;6.622;2022-12-10T05:36:21;100630.81;;;-1.82;100.00
14204;BME280;7185;51.854;6.622;2022-12-10T05:38:57;100631.41;;;-1.89;100.00
14204;BME280;7185;51.854;6.622;2022-12-10T05:41:30;100621.97;;;-1.90;100.00
14204;BME280;7185;51.854;6.622;2022-12-10T05:44:10;100631.50;;;-1.86;100.00
14204;BME280;7185;51.854;6.622;2022-12-10T05:46:43;100633.53;;;-1.78;100.00
14204;BME280;7185;51.854;6.622;2022-12-10T05:49:21;100630.22;;;-1.73;100.00
14204;BME280;7185;51.854;6.622;2022-12-10T05:51:58;100635.47;;;-1.70;100.00
14204;BME280;7185;51.854;6.622;2022-12-10T05:54:38;100637.88;;;-1.75;100.00
14204;BME280;7185;51.854;6.622;2022-12-10T05:57:13;100632.75;;;-1.75;100.00
14204;BME280;7185;51.854;6.622;2022-12-10T05:59:45;100640.47;;;-1.75;100.00
14204;BME280;7185;51.854;6.622;2022-12-10T06:02:17;100646.22;;;-1.82;100.00
14204;BME280;7185;51.854;6.622;2022-12-10T06:04:48;100642.53;;;-1.90;100.00
14204;BME280;7185;51.854;6.622;2022-12-10T06:07:25;100642.41;;;-1.94;100.00
14204;BME280;7185;51.854;6.622;2022-12-10T06:10:02;100642.28;;;-1.98;100.00
14204;BME280;7185;51.854;6.622;2022-12-10T06:12:34;100644.00;;;-1.97;100.00
14204;BME280;7185;51.854;6.622;2022-12-10T06:15:09;100653.56;;;-1.93;100.00
14204;BME280;7185;51.854;6.622;2022-12-10T06:17:41;100645.47;;;-1.78;100.00
14204;BME280;7185;51.854;6.622;2022-12-10T06:20:13;100649.50;;;-1.86;100.00
14204;BME280;7185;51.854;6.622;2022-12-10T06:22:44;100643.34;;;-1.92;100.00
14204;BME280;7185;51.854;6.622;2022-12-10T06:25:18;100645.88;;;-1.93;100.00
14204;BME280;7185;51.854;6.622;2022-12-10T06:27:50;100652.59;;;-1.97;100.00
14204;BME280;7185;51.854;6.622;2022-12-10T06:30:22;100656.09;;;-1.95;100.00
14204;BME280;7185;51.854;6.622;2022-12-10T06:32:54;100655.25;;;-1.94;100.00
14204;BME280;7185;51.854;6.622;2022-12-10T06:35:26;100651.78;;;-1.96;100.00
14204;BME280;7185;51.854;6.622;2022-12-10T06:37:57;100649.81;;;-2.03;100.00
14204;BME280;7185;51.854;6.622;2022-12-10T06:40:30;100654.56;;;-1.89;100.00
14204;BME280;7185;51.854;6.622;2022-12-10T06:43:02;100656.66;;;-1.78;100.00
14204;BME280;7185;51.854;6.622;2022-12-10T06:45:33;100659.69;;;-1.89;100.00
14204;BME280;7185;51.854;6.622;2022-12-10T06:48:09;100658.13;;;-1.84;100.00
14204;BME280;7185;51.854;6.622;2022-12-10T06:50:44;100653.13;;;-1.81;100.00
14204;BME280;7185;51.854;6.622;2022-12-10T06:53:16;100659.72;;;-1.88;100.00
14204;BME280;7185;51.854;6.622;2022-12-10T06:55:49;100663.19;;;-1.87;100.00
14204;BME280;7185;51.854;6.622;2022-12-10T06:58:21;100657.75;;;-1.97;100.00
14204;BME280;7185;51.854;6.622;2022-12-10T07:01:01;100658.41;;;-2.02;100.00
14204;BME280;7185;51.854;6.622;2022-12-10T07:03:55;100675.41;;;-2.06;100.00
14204;BME280;7185;51.854;6.622;2022-12-10T07:06:36;100672.75;;;-2.09;100.00
14204;BME280;7185;51.854;6.622;2022-12-10T07:09:11;100670.94;;;-2.12;100.00
14204;BME280;7185;51.854;6.622;2022-12-10T07:11:49;100669.25;;;-2.11;100.00
14204;BME280;7185;51.854;6.622;2022-12-10T07:14:23;100672.63;;;-2.12;100.00
14204;BME280;7185;51.854;6.622;2022-12-10T07:16:55;100673.50;;;-2.12;100.00
14204;BME280;7185;51.854;6.622;2022-12-10T07:19:30;100677.97;;;-2.06;100.00
14204;BME280;7185;51.854;6.622;2022-12-10T07:22:05;100685.84;;;-2.01;100.00
14204;BME280;7185;51.854;6.622;2022-12-10T07:25:00;100690.72;;;-1.83;100.00
14204;BME280;7185;51.854;6.622;2022-12-10T07:27:35;100692.69;;;-1.76;100.00
14204;BME280;7185;51.854;6.622;2022-12-10T07:30:08;100702.50;;;-1.64;100.00
14204;BME280;7185;51.854;6.622;2022-12-10T07:32:40;100702.59;;;-1.61;100.00
14204;BME280;7185;51.854;6.622;2022-12-10T07:35:21;100702.09;;;-1.51;100.00
14204;BME280;7185;51.854;6.622;2022-12-10T07:37:54;100711.50;;;-1.77;100.00
14204;BME280;7185;51.854;6.622;2022-12-10T07:40:26;100708.72;;;-1.57;100.00
14204;BME280;7185;51.854;6.622;2022-12-10T07:43:09;100704.81;;;-1.72;100.00
14204;BME280;7185;51.854;6.622;2022-12-10T07:45:41;100710.38;;;-1.59;100.00
14204;BME280;7185;51.854;6.622;2022-12-10T07:48:17;100714.63;;;-1.60;100.00
14204;BME280;7185;51.854;6.622;2022-12-10T07:50:55;100716.63;;;-1.51;100.00
14204;BME280;7185;51.854;6.622;2022-12-10T07:53:27;100718.53;;;-1.46;100.00
14204;BME280;7185;51.854;6.622;2022-12-10T07:55:59;100717.66;;;-1.46;100.00
14204;BME280;7185;51.854;6.622;2022-12-10T07:58:33;100718.44;;;-1.49;100.00
14204;BME280;7185;51.854;6.622;2022-12-10T08:01:09;100713.56;;;-1.67;100.00
14204;BME280;7185;51.854;6.622;2022-12-10T08:03:41;100722.50;;;-1.55;100.00
14204;BME280;7185;51.854;6.622;2022-12-10T08:06:15;100721.88;;;-1.48;100.00
14204;BME280;7185;51.854;6.622;2022-12-10T08:08:47;100724.56;;;-1.45;100.00
14204;BME280;7185;51.854;6.622;2022-12-10T08:11:21;100726.78;;;-1.56;100.00
14204;BME280;7185;51.854;6.622;2022-12-10T08:13:57;100737.56;;;-1.40;100.00
14204;BME280;7185;51.854;6.622;2022-12-10T08:16:35;100733.72;;;-1.53;100.00
14204;BME280;7185;51.854;6.622;2022-12-10T08:19:21;100733.19;;;-1.69;100.00
14204;BME280;7185;51.854;6.622;2022-12-10T08:22:05;100739.84;;;-1.50;100.00
14204;BME280;7185;51.854;6.622;2022-12-10T08:24:54;100740.53;;;-1.54;100.00
14204;BME280;7185;51.854;6.622;2022-12-10T08:27:40;100745.41;;;-1.36;100.00
14204;BME280;7185;51.854;6.622;2022-12-10T08:30:35;100740.88;;;-1.17;100.00
14204;BME280;7185;51.854;6.622;2022-12-10T08:33:07;100741.91;;;-1.12;100.00
14204;BME280;7185;51.854;6.622;2022-12-10T08:35:53;100744.88;;;-1.27;100.00
14204;BME280;7185;51.854;6.622;2022-12-10T08:38:53;100754.13;;;-1.05;100.00
14204;BME280;7185;51.854;6.622;2022-12-10T08:41:26;100750.78;;;-1.02;100.00
14204;BME280;7185;51.854;6.622;2022-12-10T08:44:40;100765.56;;;-0.97;100.00
14204;BME280;7185;51.854;6.622;2022-12-10T08:47:13;100765.81;;;-0.87;100.00
14204;BME280;7185;51.854;6.622;2022-12-10T08:49:53;100764.78;;;-0.94;100.00
14204;BME280;7185;51.854;6.622;2022-12-10T08:52:42;100773.66;;;-0.84;100.00
14204;BME280;7185;51.854;6.622;2022-12-10T08:55:30;100778.75;;;-0.86;100.00
14204;BME280;7185;51.854;6.622;2022-12-10T08:58:07;100779.91;;;-1.03;100.00
14204;BME280;7185;51.854;6.622;2022-12-10T09:00:48;100782.63;;;-0.99;100.00
14204;BME280;7185;51.854;6.622;2022-12-10T09:03:34;100780.28;;;-0.91;100.00
14204;BME280;7185;51.854;6.622;2022-12-10T09:06:25;100788.78;;;-0.66;100.00
14204;BME280;7185;51.854;6.622;2022-12-10T09:08:59;100795.75;;;-0.91;100.00
14204;BME280;7185;51.854;6.622;2022-12-10T09:11:36;100789.09;;;-0.84;100.00
14204;BME280;7185;51.854;6.622;2022-12-10T09:14:19;100791.19;;;-1.00;100.00
14204;BME280;7185;51.854;6.622;2022-12-10T09:16:57;100791.19;;;-0.72;100.00
14204;BME280;7185;51.854;6.622;2022-12-10T09:19:31;100787.97;;;-0.65;100.00
14204;BME280;7185;51.854;6.622;2022-12-10T09:22:02;100796.59;;;-0.63;100.00
14204;BME280;7185;51.854;6.622;2022-12-10T09:24:42;100803.91;;;-0.77;100.00
14204;BME280;7185;51.854;6.622;2022-12-10T09:27:25;100802.44;;;-0.69;100.00
14204;BME280;7185;51.854;6.622;2022-12-10T09:30:13;100800.66;;;-0.71;100.00
14204;BME280;7185;51.854;6.622;2022-12-10T09:33:00;100811.47;;;-0.54;100.00
14204;BME280;7185;51.854;6.622;2022-12-10T09:35:52;100811.50;;;-0.53;100.00
14204;BME280;7185;51.854;6.622;2022-12-10T09:38:26;100811.84;;;-0.42;100.00
14204;BME280;7185;51.854;6.622;2022-12-10T09:44:31;100806.09;;;-0.89;100.00
14204;BME280;7185;51.854;6.622;2022-12-10T09:47:29;100806.00;;;-0.92;100.00
14204;BME280;7185;51.854;6.622;2022-12-10T09:50:33;100800.78;;;-0.67;100.00
14204;BME280;7185;51.854;6.622;2022-12-10T09:53:12;100805.50;;;-0.81;100.00
14204;BME280;7185;51.854;6.622;2022-12-10T09:56:10;100809.13;;;-0.74;100.00
14204;BME280;7185;51.854;6.622;2022-12-10T09:58:57;100800.28;;;-0.55;100.00
14204;BME280;7185;51.854;6.622;2022-12-10T10:01:45;100797.78;;;-0.53;100.00
14204;BME280;7185;51.854;6.622;2022-12-10T10:04:21;100804.13;;;-0.69;100.00
14204;BME280;7185;51.854;6.622;2022-12-10T10:07:05;100812.78;;;-0.67;100.00
14204;BME280;7185;51.854;6.622;2022-12-10T10:09:40;100803.09;;;-0.47;100.00
14204;BME280;7185;51.854;6.622;2022-12-10T10:12:15;100794.22;;;-0.57;100.00
14204;BME280;7185;51.854;6.622;2022-12-10T10:14:50;100801.63;;;-0.68;100.00
14204;BME280;7185;51.854;6.622;2022-12-10T10:17:27;100794.44;;;-0.49;100.00
14204;BME280;7185;51.854;6.622;2022-12-10T10:20:38;100797.66;;;-0.56;100.00
14204;BME280;7185;51.854;6.622;2022-12-10T10:23:38;100797.66;;;-0.56;100.00
14204;BME280;7185;51.854;6.622;2022-12-10T10:26:38;100805.09;;;-0.37;100.00
14204;BME280;7185;51.854;6.622;2022-12-10T10:32:54;100794.91;;;-0.34;100.00
14204;BME280;7185;51.854;6.622;2022-12-10T10:35:41;100795.25;;;-0.21;100.00
14204;BME280;7185;51.854;6.622;2022-12-10T10:38:34;100802.94;;;-0.53;100.00
14204;BME280;7185;51.854;6.622;2022-12-10T10:41:29;100805.22;;;-0.62;100.00
14204;BME280;7185;51.854;6.622;2022-12-10T10:47:42;100801.75;;;-0.63;100.00
14204;BME280;7185;51.854;6.622;2022-12-10T10:50:26;100799.50;;;-0.52;100.00
14204;BME280;7185;51.854;6.622;2022-12-10T10:53:29;100791.75;;;-0.23;100.00
14204;BME280;7185;51.854;6.622;2022-12-10T10:56:06;100788.94;;;-0.33;100.00
14204;BME280;7185;51.854;6.622;2022-12-10T10:58:58;100788.63;;;-0.13;100.00
14204;BME280;7185;51.854;6.622;2022-12-10T11:01:44;100802.50;;;-0.08;100.00
14204;BME280;7185;51.854;6.622;2022-12-10T11:04:29;100798.94;;;-0.13;100.00
14204;BME280;7185;51.854;6.622;2022-12-10T11:07:21;100797.44;;;-0.05;100.00
14204;BME280;7185;51.854;6.622;2022-12-10T11:09:54;100790.38;;;-0.12;100.00
14204;BME280;7185;51.854;6.622;2022-12-10T11:12:34;100795.94;;;-0.27;100.00
14204;BME280;7185;51.854;6.622;2022-12-10T11:15:33;100804.09;;;-0.13;100.00
14204;BME280;7185;51.854;6.622;2022-12-10T11:18:23;100794.13;;;-0.01;100.00
14204;BME280;7185;51.854;6.622;2022-12-10T11:20:59;100797.00;;;0.10;100.00
14204;BME280;7185;51.854;6.622;2022-12-10T11:23:38;100795.88;;;0.01;100.00
14204;BME280;7185;51.854;6.622;2022-12-10T11:30:01;100793.66;;;0.14;100.00
14204;BME280;7185;51.854;6.622;2022-12-10T11:32:56;100776.56;;;0.18;100.00
14204;BME280;7185;51.854;6.622;2022-12-10T11:35:48;100779.34;;;-0.06;100.00
14204;BME280;7185;51.854;6.622;2022-12-10T11:38:50;100789.66;;;0.24;100.00
14204;BME280;7185;51.854;6.622;2022-12-10T11:41:44;100789.47;;;0.18;100.00
14204;BME280;7185;51.854;6.622;2022-12-10T11:44:25;100781.97;;;0.27;100.00
14204;BME280;7185;51.854;6.622;2022-12-10T11:47:21;100787.06;;;0.24;100.00
14204;BME280;7185;51.854;6.622;2022-12-10T11:50:15;100789.16;;;0.38;100.00
14204;BME280;7185;51.854;6.622;2022-12-10T11:53:07;100789.78;;;0.64;100.00
14204;BME280;7185;51.854;6.622;2022-12-10T11:56:11;100786.78;;;0.47;100.00
14204;BME280;7185;51.854;6.622;2022-12-10T11:59:12;100775.13;;;0.28;100.00
14204;BME280;7185;51.854;6.622;2022-12-10T12:02:07;100777.75;;;0.29;100.00
14204;BME280;7185;51.854;6.622;2022-12-10T12:05:06;100777.25;;;0.44;100.00
14204;BME280;7185;51.854;6.622;2022-12-10T12:07:56;100770.78;;;0.60;100.00
14204;BME280;7185;51.854;6.622;2022-12-10T12:13:41;100777.00;;;0.69;100.00
14204;BME280;7185;51.854;6.622;2022-12-10T12:16:30;100773.31;;;0.57;100.00
14204;BME280;7185;51.854;6.622;2022-12-10T12:19:23;100769.94;;;0.61;100.00
14204;BME280;7185;51.854;6.622;2022-12-10T12:22:14;100764.09;;;0.69;100.00
14204;BME280;7185;51.854;6.622;2022-12-10T12:25:05;100768.56;;;0.74;100.00
14204;BME280;7185;51.854;6.622;2022-12-10T12:27:40;100772.31;;;0.87;100.00
14204;BME280;7185;51.854;6.622;2022-12-10T12:30:25;100781.09;;;0.95;100.00
14204;BME280;7185;51.854;6.622;2022-12-10T12:33:11;100779.81;;;0.76;100.00
14204;BME280;7185;51.854;6.622;2022-12-10T12:35:59;100776.53;;;0.84;100.00
14204;BME280;7185;51.854;6.622;2022-12-10T12:39:04;100778.06;;;0.77;100.00
14204;BME280;7185;51.854;6.622;2022-12-10T12:42:02;100788.41;;;0.77;100.00
14204;BME280;7185;51.854;6.622;2022-12-10T12:45:28;100780.50;;;0.71;100.00
14204;BME280;7185;51.854;6.622;2022-12-10T12:48:13;100785.91;;;0.80;100.00
14204;BME280;7185;51.854;6.622;2022-12-10T12:51:03;100784.91;;;0.75;100.00
14204;BME280;7185;51.854;6.622;2022-12-10T12:53:50;100780.41;;;0.68;100.00
14204;BME280;7185;51.854;6.622;2022-12-10T12:56:34;100774.69;;;0.79;100.00
14204;BME280;7185;51.854;6.622;2022-12-10T12:59:29;100786.13;;;0.89;100.00
14204;BME280;7185;51.854;6.622;2022-12-10T13:02:19;100781.16;;;0.62;100.00
14204;BME280;7185;51.854;6.622;2022-12-10T13:05:16;100783.00;;;0.68;100.00
14204;BME280;7185;51.854;6.622;2022-12-10T13:08:23;100785.03;;;0.79;100.00
14204;BME280;7185;51.854;6.622;2022-12-10T13:11:00;100788.50;;;0.80;100.00
14204;BME280;7185;51.854;6.622;2022-12-10T13:14:30;100788.44;;;0.78;100.00
14204;BME280;7185;51.854;6.622;2022-12-10T13:17:24;100796.53;;;0.92;100.00
14204;BME280;7185;51.854;6.622;2022-12-10T13:20:31;100796.97;;;0.76;100.00
14204;BME280;7185;51.854;6.622;2022-12-10T13:26:23;100801.03;;;0.66;100.00
14204;BME280;7185;51.854;6.622;2022-12-10T13:29:22;100802.91;;;0.72;100.00
14204;BME280;7185;51.854;6.622;2022-12-10T13:32:01;100798.13;;;0.87;100.00
14204;BME280;7185;51.854;6.622;2022-12-10T13:34:36;100797.03;;;0.77;100.00
14204;BME280;7185;51.854;6.622;2022-12-10T13:37:30;100798.75;;;0.78;100.00
14204;BME280;7185;51.854;6.622;2022-12-10T13:40:21;100796.41;;;0.88;100.00
14204;BME280;7185;51.854;6.622;2022-12-10T13:42:57;100803.38;;;0.92;100.00
14204;BME280;7185;51.854;6.622;2022-12-10T13:45:47;100797.75;;;0.72;100.00
14204;BME280;7185;51.854;6.622;2022-12-10T13:48:37;100802.00;;;0.70;100.00
14204;BME280;7185;51.854;6.622;2022-12-10T13:51:26;100800.50;;;0.79;100.00
14204;BME280;7185;51.854;6.622;2022-12-10T14:00:20;100801.66;;;0.91;100.00
14204;BME280;7185;51.854;6.622;2022-12-10T14:06:16;100798.97;;;0.86;100.00
14204;BME280;7185;51.854;6.622;2022-12-10T14:08:58;100807.41;;;0.81;100.00
14204;BME280;7185;51.854;6.622;2022-12-10T14:11:47;100815.03;;;0.76;100.00
14204;BME280;7185;51.854;6.622;2022-12-10T14:14:31;100818.00;;;0.91;100.00
14204;BME280;7185;51.854;6.622;2022-12-10T14:17:16;100821.97;;;0.77;100.00
14204;BME280;7185;51.854;6.622;2022-12-10T14:20:15;100825.59;;;0.85;100.00
14204;BME280;7185;51.854;6.622;2022-12-10T14:22:57;100832.47;;;0.85;100.00
14204;BME280;7185;51.854;6.622;2022-12-10T14:25:53;100829.25;;;0.93;100.00
14204;BME280;7185;51.854;6.622;2022-12-10T14:28:50;100827.75;;;1.02;100.00
14204;BME280;7185;51.854;6.622;2022-12-10T14:31:35;100831.59;;;0.84;100.00
14204;BME280;7185;51.854;6.622;2022-12-10T14:34:15;100831.44;;;0.78;100.00
14204;BME280;7185;51.854;6.622;2022-12-10T14:37:03;100824.97;;;0.94;100.00
14204;BME280;7185;51.854;6.622;2022-12-10T14:39:38;100825.84;;;0.61;100.00
14204;BME280;7185;51.854;6.622;2022-12-10T14:42:13;100831.06;;;0.62;100.00
14204;BME280;7185;51.854;6.622;2022-12-10T14:44:54;100828.03;;;0.79;100.00
14204;BME280;7185;51.854;6.622;2022-12-10T14:47:32;100823.81;;;0.81;100.00
14204;BME280;7185;51.854;6.622;2022-12-10T14:50:10;100830.06;;;0.57;100.00
14204;BME280;7185;51.854;6.622;2022-12-10T14:52:44;100830.94;;;0.58;100.00
14204;BME280;7185;51.854;6.622;2022-12-10T14:55:21;100839.03;;;0.72;100.00
14204;BME280;7185;51.854;6.622;2022-12-10T14:57:56;100833.78;;;0.69;100.00
14204;BME280;7185;51.854;6.622;2022-12-10T15:00:33;100828.75;;;0.73;100.00
14204;BME280;7185;51.854;6.622;2022-12-10T15:03:08;100831.44;;;0.78;100.00
14204;BME280;7185;51.854;6.622;2022-12-10T15:05:40;100831.63;;;0.86;100.00
14204;BME280;7185;51.854;6.622;2022-12-10T15:08:14;100844.50;;;0.84;100.00
14204;BME280;7185;51.854;6.622;2022-12-10T15:10:51;100849.91;;;0.93;100.00
14204;BME280;7185;51.854;6.622;2022-12-10T15:13:28;100847.09;;;0.84;100.00
14204;BME280;7185;51.854;6.622;2022-12-10T15:16:13;100844.38;;;0.46;100.00